createdAt,value
2023-04-04T00:00:55.966Z,10.24
2023-04-04T00:03:24.624Z,10.18
2023-04-04T00:05:54.469Z,10.53
2023-04-04T00:08:23.130Z,10.63
2023-04-04T00:10:51.500Z,10.72
2023-04-04T00:13:19.754Z,10.75
2023-04-04T00:15:48.610Z,10.47
2023-04-04T00:18:17.295Z,10.60
2023-04-04T00:20:45.768Z,10.65
2023-04-04T00:23:15.445Z,10.32
2023-04-04T00:25:44.266Z,10.56
2023-04-04T00:28:12.534Z,10.57
2023-04-04T00:30:41.179Z,9.90
2023-04-04T00:33:09.765Z,10.26
2023-04-04T00:35:38.546Z,9.89
2023-04-04T00:38:07.771Z,10.04
2023-04-04T00:40:42.549Z,9.78
2023-04-04T00:43:11.718Z,10.24
2023-04-04T00:45:40.223Z,10.10
2023-04-04T00:48:08.729Z,9.60
2023-04-04T00:50:37.119Z,9.38
2023-04-04T00:53:05.601Z,9.98
2023-04-04T00:55:34.045Z,9.91
2023-04-04T00:58:04.646Z,10.28
2023-04-04T01:00:35.686Z,9.88
2023-04-04T01:03:06.007Z,9.79
2023-04-04T01:05:34.482Z,9.93
2023-04-04T01:08:03.262Z,9.92
2023-04-04T01:10:32.085Z,9.39
2023-04-04T01:13:03.404Z,9.88
2023-04-04T01:15:32.256Z,9.79
2023-04-04T01:18:03.557Z,9.13
2023-04-04T01:20:35.249Z,9.22
2023-04-04T01:23:06.216Z,9.48
2023-04-04T01:25:36.198Z,9.65
2023-04-04T01:28:04.544Z,9.29
2023-04-04T01:30:35.997Z,9.33
2023-04-04T01:33:11.889Z,9.15
2023-04-04T01:35:45.548Z,9.15
2023-04-04T01:38:22.367Z,8.77
2023-04-04T01:40:56.720Z,8.82
2023-04-04T01:43:25.089Z,8.88
2023-04-04T01:45:53.421Z,9.00
2023-04-04T01:48:22.472Z,8.83
2023-04-04T01:50:50.826Z,9.08
2023-04-04T01:53:19.145Z,9.13
2023-04-04T01:55:47.405Z,9.14
2023-04-04T01:58:17.052Z,8.82
2023-04-04T02:00:45.587Z,8.59
2023-04-04T02:03:13.886Z,8.32
2023-04-04T02:05:42.325Z,8.98
2023-04-04T02:08:10.564Z,8.34
2023-04-04T02:10:39.109Z,8.03
2023-04-04T02:13:07.989Z,8.32
2023-04-04T02:15:37.789Z,8.12
2023-04-04T02:18:06.221Z,8.12
2023-04-04T02:20:34.792Z,8.09
2023-04-04T02:23:02.967Z,7.77
2023-04-04T02:25:31.336Z,8.18
2023-04-04T02:27:59.607Z,8.25
2023-04-04T02:30:28.361Z,8.61
2023-04-04T02:33:00.806Z,8.46
2023-04-04T02:35:29.224Z,8.36
2023-04-04T02:37:57.463Z,8.29
2023-04-04T02:40:25.814Z,8.30
2023-04-04T02:42:54.047Z,8.41
2023-04-04T02:45:22.853Z,8.38
2023-04-04T02:47:51.750Z,8.79
2023-04-04T02:50:21.581Z,7.95
2023-04-04T02:52:49.853Z,7.91
2023-04-04T02:55:18.252Z,7.87
2023-04-04T02:57:52.419Z,8.09
2023-04-04T03:00:21.384Z,8.30
2023-04-04T03:02:55.524Z,8.37
2023-04-04T03:05:27.045Z,8.36
2023-04-04T03:07:57.089Z,8.40
2023-04-04T03:10:26.031Z,7.99
2023-04-04T03:12:54.875Z,8.12
2023-04-04T03:15:23.332Z,8.16
2023-04-04T03:17:52.093Z,8.04
2023-04-04T03:20:20.534Z,8.26
2023-04-04T03:22:50.472Z,8.23
2023-04-04T03:25:18.876Z,8.47
2023-04-04T03:27:47.425Z,8.59
2023-04-04T03:30:15.954Z,8.55
2023-04-04T03:32:44.889Z,8.69
2023-04-04T03:35:13.272Z,8.12
2023-04-04T03:37:42.931Z,8.53
2023-04-04T03:40:14.116Z,8.61
2023-04-04T03:42:42.381Z,9.09
2023-04-04T03:45:11.779Z,9.17
2023-04-04T03:47:40.613Z,9.38
2023-04-04T03:50:09.655Z,9.67
2023-04-04T03:52:40.306Z,9.83
2023-04-04T03:55:10.100Z,9.78
2023-04-04T03:57:39.748Z,9.75
2023-04-04T04:00:09.274Z,9.84
2023-04-04T04:02:37.771Z,9.31
2023-04-04T04:05:06.691Z,10.11
2023-04-04T04:07:34.904Z,9.88
2023-04-04T04:10:03.670Z,9.58
2023-04-04T04:12:32.067Z,8.89
2023-04-04T04:15:02.053Z,9.20
2023-04-04T04:17:30.352Z,9.26
2023-04-04T04:19:58.658Z,8.90
2023-04-04T04:22:27.033Z,9.01
2023-04-04T04:24:55.588Z,8.50
2023-04-04T04:27:23.979Z,8.84
2023-04-04T04:29:52.351Z,9.34
2023-04-04T04:32:22.300Z,9.21
2023-04-04T04:34:50.576Z,9.18
2023-04-04T04:37:18.877Z,8.90
2023-04-04T04:39:47.182Z,9.20
2023-04-04T04:42:15.495Z,9.35
2023-04-04T04:44:43.874Z,8.71
2023-04-04T04:47:12.265Z,8.26
2023-04-04T04:49:42.490Z,7.81
2023-04-04T04:52:11.192Z,8.39
2023-04-04T04:54:39.499Z,8.52
2023-04-04T04:57:08.217Z,8.69
2023-04-04T04:59:37.296Z,8.61
2023-04-04T05:02:05.690Z,9.01
2023-04-04T05:04:34.048Z,9.06
2023-04-04T05:07:03.853Z,9.07
2023-04-04T05:09:32.186Z,8.93
2023-04-04T05:12:00.423Z,9.30
2023-04-04T05:14:28.989Z,9.32
2023-04-04T05:16:57.505Z,9.44
2023-04-04T05:19:26.032Z,9.37
2023-04-04T05:21:54.658Z,9.24
2023-04-04T05:24:24.311Z,9.17
2023-04-04T05:26:52.678Z,8.95
2023-04-04T05:29:20.975Z,9.01
2023-04-04T05:31:49.277Z,9.08
2023-04-04T05:34:17.659Z,9.18
2023-04-04T05:36:46.368Z,9.11
2023-04-04T05:39:14.680Z,9.07
2023-04-04T05:41:44.411Z,9.00
2023-04-04T05:44:12.946Z,8.74
2023-04-04T05:46:41.253Z,8.73
2023-04-04T05:49:09.570Z,9.01
2023-04-04T05:51:37.891Z,8.97
2023-04-04T05:54:07.632Z,8.63
2023-04-04T05:56:36.140Z,9.04
2023-04-04T05:59:06.068Z,9.42
2023-04-04T06:01:34.410Z,9.70
2023-04-04T06:04:02.687Z,9.63
2023-04-04T06:06:31.037Z,9.56
2023-04-04T06:08:59.386Z,9.69
2023-04-04T06:11:27.632Z,9.83
2023-04-04T06:13:56.240Z,9.76
2023-04-04T06:16:26.001Z,9.39
2023-04-04T06:18:54.300Z,9.10
2023-04-04T06:21:22.683Z,9.05
2023-04-04T06:23:50.932Z,9.38
2023-04-04T06:26:19.486Z,9.22
2023-04-04T06:28:50.923Z,9.64
2023-04-04T06:31:20.344Z,10.06
2023-04-04T06:33:50.057Z,10.18
2023-04-04T06:36:18.481Z,10.26
2023-04-04T06:38:46.971Z,10.27
2023-04-04T06:41:15.234Z,10.25
2023-04-04T06:43:43.753Z,10.43
2023-04-04T06:46:12.137Z,10.50
2023-04-04T06:48:40.509Z,10.67
2023-04-04T06:51:10.565Z,10.70
2023-04-04T06:53:39.140Z,10.66
2023-04-04T06:56:08.234Z,10.73
2023-04-04T06:58:36.469Z,10.79
2023-04-04T07:01:04.811Z,10.34
2023-04-04T07:03:33.296Z,9.91
2023-04-04T07:06:04.691Z,10.29
2023-04-04T07:08:36.629Z,10.21
2023-04-04T07:11:06.543Z,9.90
2023-04-04T07:13:35.274Z,10.32
2023-04-04T07:16:03.716Z,9.88
2023-04-04T07:18:32.396Z,9.51
2023-04-04T07:21:00.883Z,9.18
2023-04-04T07:23:29.060Z,8.98
2023-04-04T07:25:58.919Z,9.23
2023-04-04T07:28:27.254Z,9.41
2023-04-04T07:30:55.588Z,9.23
2023-04-04T07:33:23.896Z,10.01
2023-04-04T07:35:52.274Z,10.19
2023-04-04T07:38:20.727Z,10.44
2023-04-04T07:40:50.328Z,10.36
2023-04-04T07:43:19.956Z,10.33
2023-04-04T07:45:48.334Z,10.25
2023-04-04T07:48:16.673Z,10.41
2023-04-04T07:50:44.935Z,10.27
2023-04-04T07:53:13.251Z,9.96
2023-04-04T07:55:41.486Z,10.04
2023-04-04T07:58:09.717Z,9.90
2023-04-04T08:00:39.657Z,9.94
2023-04-04T08:03:08.443Z,9.81
2023-04-04T08:05:36.802Z,9.67
2023-04-04T08:08:05.139Z,9.65
2023-04-04T08:10:33.453Z,9.89
2023-04-04T08:13:01.733Z,9.98
2023-04-04T08:15:30.953Z,9.78
2023-04-04T08:18:00.915Z,9.84
2023-04-04T08:20:29.493Z,9.92
2023-04-04T08:22:57.727Z,9.68
2023-04-04T08:25:26.383Z,9.76
2023-04-04T08:27:54.688Z,10.18
2023-04-04T08:30:23.373Z,10.72
2023-04-04T08:32:51.699Z,10.70
2023-04-04T08:35:21.633Z,10.99
2023-04-04T08:37:50.125Z,11.16
2023-04-04T08:40:18.594Z,10.61
2023-04-04T08:42:48.281Z,11.18
2023-04-04T08:45:19.663Z,11.38
2023-04-04T08:47:51.463Z,10.59
2023-04-04T08:50:23.265Z,11.22
2023-04-04T08:52:51.667Z,11.24
2023-04-04T08:55:20.290Z,11.68
2023-04-04T08:57:49.400Z,11.93
2023-04-04T09:00:18.258Z,11.48
2023-04-04T09:02:52.529Z,11.70
2023-04-04T09:05:22.955Z,12.30
2023-04-04T09:07:52.674Z,12.65
2023-04-04T09:10:21.110Z,12.11
2023-04-04T09:12:50.005Z,12.82
2023-04-04T09:15:19.032Z,13.13
2023-04-04T09:17:47.386Z,13.28
2023-04-04T09:20:40.873Z,13.76
2023-04-04T09:23:12.160Z,14.05
2023-04-04T09:25:56.255Z,14.45
2023-04-04T09:28:29.681Z,14.80
2023-04-04T09:30:58.098Z,15.32
2023-04-04T09:33:27.393Z,15.83
2023-04-04T09:36:00.197Z,15.67
2023-04-04T09:38:30.783Z,16.08
2023-04-04T09:40:59.436Z,16.49
2023-04-04T09:43:30.990Z,16.79
2023-04-04T09:46:01.588Z,17.02
2023-04-04T09:48:32.865Z,17.04
2023-04-04T09:51:06.065Z,17.53
2023-04-04T09:53:37.397Z,17.77
2023-04-04T09:56:07.126Z,18.48
2023-04-04T09:58:36.618Z,18.77
2023-04-04T10:01:09.918Z,19.47
2023-04-04T10:03:39.763Z,19.84
2023-04-04T10:06:11.299Z,19.38
2023-04-04T10:08:43.361Z,19.22
2023-04-04T10:11:12.706Z,18.78
2023-04-04T10:13:44.233Z,18.51
2023-04-04T10:16:13.126Z,18.20
2023-04-04T10:18:41.909Z,17.74
2023-04-04T10:21:15.753Z,17.03
2023-04-04T10:23:46.873Z,16.36
2023-04-04T10:26:15.529Z,16.52
2023-04-04T10:28:44.368Z,17.17
2023-04-04T10:31:21.646Z,17.83
2023-04-04T10:34:02.000Z,17.41
2023-04-04T10:36:37.805Z,17.75
2023-04-04T10:39:14.707Z,18.55
2023-04-04T10:41:43.710Z,18.02
2023-04-04T10:44:19.918Z,17.48
2023-04-04T10:46:51.885Z,16.77
2023-04-04T10:49:21.816Z,17.32
2023-04-04T10:51:56.392Z,17.53
2023-04-04T10:54:26.847Z,17.44
2023-04-04T10:56:56.792Z,17.25
2023-04-04T10:59:26.893Z,18.09
2023-04-04T11:01:58.876Z,18.58
2023-04-04T11:04:34.915Z,18.24
2023-04-04T11:07:29.499Z,18.05
2023-04-04T11:09:58.334Z,18.66
2023-04-04T11:12:31.525Z,19.50
2023-04-04T11:15:09.864Z,19.13
2023-04-04T11:18:21.502Z,19.70
2023-04-04T11:20:55.908Z,19.66
2023-04-04T11:23:27.562Z,19.24
2023-04-04T11:25:57.373Z,19.26
2023-04-04T11:28:45.168Z,20.30
2023-04-04T11:31:28.023Z,20.88
2023-04-04T11:33:58.979Z,22.33
2023-04-04T11:36:55.443Z,20.98
2023-04-04T11:39:27.442Z,19.48
2023-04-04T11:41:59.008Z,19.37
2023-04-04T11:44:30.726Z,19.62
2023-04-04T11:47:06.599Z,19.86
2023-04-04T11:49:36.717Z,19.91
2023-04-04T11:52:10.256Z,18.98
2023-04-04T11:54:41.752Z,18.94
2023-04-04T11:57:13.074Z,18.72
2023-04-04T11:59:42.203Z,18.84
2023-04-04T12:02:11.185Z,19.57
2023-04-04T12:04:43.508Z,20.22
2023-04-04T12:07:12.881Z,21.25
2023-04-04T12:09:43.579Z,20.66
2023-04-04T12:12:14.591Z,20.67
2023-04-04T12:14:43.229Z,21.47
2023-04-04T12:17:12.409Z,21.95
2023-04-04T12:19:42.010Z,23.19
2023-04-04T12:22:10.351Z,23.49
2023-04-04T12:24:38.836Z,22.70
2023-04-04T12:27:08.708Z,21.82
2023-04-04T12:29:38.260Z,22.46
2023-04-04T12:32:07.913Z,22.77
2023-04-04T12:34:46.934Z,23.23
2023-04-04T12:37:19.749Z,22.04
2023-04-04T12:39:52.477Z,23.15
2023-04-04T12:42:26.840Z,23.46
2023-04-04T12:44:55.711Z,23.76
2023-04-04T12:47:26.379Z,22.70
2023-04-04T12:49:55.560Z,22.19
2023-04-04T12:52:29.697Z,21.14
2023-04-04T12:57:35.680Z,19.94
2023-04-04T13:00:07.915Z,20.73
2023-04-04T13:02:37.943Z,20.51
2023-04-04T13:05:08.385Z,19.00
2023-04-04T13:07:43.477Z,18.48
2023-04-04T13:10:14.309Z,18.79
2023-04-04T13:13:00.661Z,18.22
2023-04-04T13:15:51.169Z,17.60
2023-04-04T13:18:22.591Z,17.73
2023-04-04T13:20:51.245Z,17.92
2023-04-04T13:23:20.019Z,18.41
2023-04-04T13:25:48.498Z,17.71
2023-04-04T13:28:18.664Z,17.90
2023-04-04T13:30:49.608Z,17.24
2023-04-04T13:33:18.684Z,16.46
2023-04-04T13:35:47.714Z,16.60
2023-04-04T13:38:16.462Z,17.04
2023-04-04T13:40:45.744Z,17.01
2023-04-04T13:43:15.321Z,16.89
2023-04-04T13:45:45.330Z,16.83
2023-04-04T13:48:14.353Z,17.08
2023-04-04T13:50:44.238Z,17.61
2023-04-04T13:53:12.633Z,17.21
2023-04-04T13:55:47.820Z,18.00
2023-04-04T13:58:29.613Z,17.86
2023-04-04T14:00:59.413Z,17.66
2023-04-04T14:03:27.657Z,17.49
2023-04-04T14:05:56.002Z,17.52
2023-04-04T14:08:24.401Z,17.56
2023-04-04T14:10:52.702Z,17.87
2023-04-04T14:13:21.589Z,18.95
2023-04-04T14:15:50.494Z,17.97
2023-04-04T14:18:20.275Z,17.54
2023-04-04T14:20:48.546Z,17.19
2023-04-04T14:23:16.700Z,16.84
2023-04-04T14:25:45.006Z,16.93
2023-04-04T14:28:14.523Z,16.75
2023-04-04T14:30:42.913Z,16.48
2023-04-04T14:33:11.242Z,16.15
2023-04-04T14:35:41.586Z,16.19
2023-04-04T14:38:10.237Z,15.22
2023-04-04T14:40:38.578Z,15.67
2023-04-04T14:43:07.817Z,15.22
2023-04-04T14:45:36.212Z,15.19
2023-04-04T14:48:04.592Z,14.93
2023-04-04T14:50:33.004Z,15.29
2023-04-04T14:53:02.811Z,14.97
2023-04-04T14:55:31.154Z,15.05
2023-04-04T14:58:02.649Z,14.76
2023-04-04T15:00:31.560Z,14.71
2023-04-04T15:02:59.825Z,14.58
2023-04-04T15:05:28.340Z,14.64
2023-04-04T15:07:56.892Z,15.05
2023-04-04T15:10:26.724Z,14.44
2023-04-04T15:12:55.410Z,14.88
2023-04-04T15:15:23.973Z,14.60
2023-04-04T15:17:52.468Z,15.08
2023-04-04T15:20:20.749Z,14.74
2023-04-04T15:22:49.009Z,14.06
2023-04-04T15:25:17.304Z,14.92
2023-04-04T15:27:47.018Z,15.18
2023-04-04T15:30:16.212Z,15.07
2023-04-04T15:32:44.536Z,14.81
2023-04-04T15:35:19.580Z,14.92
2023-04-04T15:37:50.137Z,14.81
2023-04-04T15:40:19.348Z,14.96
2023-04-04T15:43:06.815Z,14.37
2023-04-04T15:45:35.282Z,13.85
2023-04-04T15:48:03.735Z,14.02
2023-04-04T15:50:32.072Z,13.77
2023-04-04T15:53:00.477Z,14.21
2023-04-04T15:55:28.811Z,14.31
2023-04-04T15:57:58.577Z,14.07
2023-04-04T16:00:29.149Z,13.96
2023-04-04T16:02:59.051Z,13.70
2023-04-04T16:05:28.519Z,13.33
2023-04-04T16:07:56.832Z,13.12
2023-04-04T16:10:25.043Z,13.32
2023-04-04T16:12:53.563Z,12.43
2023-04-04T16:15:23.298Z,12.68
2023-04-04T16:17:52.547Z,12.65
2023-04-04T16:20:21.061Z,12.28
2023-04-04T16:22:49.392Z,12.16
2023-04-04T16:25:18.801Z,12.13
2023-04-04T16:27:47.162Z,11.89
2023-04-04T16:30:16.316Z,11.93
2023-04-04T16:32:47.357Z,12.13
2023-04-04T16:35:15.886Z,11.93
2023-04-04T16:37:44.252Z,12.42
2023-04-04T16:40:14.825Z,12.28
2023-04-04T16:42:43.802Z,12.44
2023-04-04T16:45:13.084Z,12.37
2023-04-04T16:47:41.475Z,12.47
2023-04-04T16:50:12.338Z,12.41
2023-04-04T16:52:40.865Z,12.26
2023-04-04T16:55:10.367Z,12.40
2023-04-04T16:57:38.666Z,12.40
2023-04-04T17:00:10.157Z,12.56
2023-04-04T17:02:45.425Z,12.45
2023-04-04T17:05:15.943Z,12.72
2023-04-04T17:07:44.344Z,12.37
2023-04-04T17:10:13.721Z,12.23
2023-04-04T17:12:42.294Z,12.56
2023-04-04T17:15:11.477Z,12.12
2023-04-04T17:17:40.072Z,12.12
2023-04-04T17:20:09.447Z,12.15
2023-04-04T17:22:40.673Z,11.82
2023-04-04T17:25:10.130Z,12.21
2023-04-04T17:27:38.505Z,12.18
2023-04-04T17:30:08.555Z,12.33
2023-04-04T17:32:37.045Z,12.52
2023-04-04T17:35:05.839Z,12.67
2023-04-04T17:37:34.172Z,12.62
2023-04-04T17:40:05.519Z,12.40
2023-04-04T17:42:33.906Z,12.35
2023-04-04T17:45:02.372Z,12.30
2023-04-04T17:47:31.344Z,12.64
2023-04-04T17:49:59.967Z,12.49
2023-04-04T17:52:28.420Z,12.27
2023-04-04T17:54:56.709Z,12.39
2023-04-04T17:57:26.519Z,12.34
2023-04-04T17:59:54.917Z,11.99
2023-04-04T18:02:23.327Z,11.85
2023-04-04T18:04:52.404Z,11.78
2023-04-04T18:07:20.802Z,11.95
2023-04-04T18:09:49.130Z,11.79
2023-04-04T18:12:18.356Z,11.79
2023-04-04T18:14:48.092Z,11.63
2023-04-04T18:17:16.808Z,12.09
2023-04-04T18:19:45.059Z,11.79
2023-04-04T18:22:13.497Z,11.90
2023-04-04T18:24:41.870Z,11.33
2023-04-04T18:27:10.549Z,11.70
2023-04-04T18:29:38.796Z,11.41
2023-04-04T18:32:08.567Z,10.96
2023-04-04T18:34:37.396Z,11.11
2023-04-04T18:37:06.710Z,11.19
2023-04-04T18:39:35.228Z,11.01
2023-04-04T18:42:04.367Z,11.22
2023-04-04T18:44:33.128Z,11.23
2023-04-04T18:47:05.072Z,10.32
2023-04-04T18:49:35.073Z,11.66
2023-04-04T18:52:03.327Z,11.78
2023-04-04T18:54:31.833Z,11.60
2023-04-04T18:57:00.928Z,11.45
2023-04-04T18:59:30.906Z,11.28
2023-04-04T19:02:01.028Z,11.02
2023-04-04T19:04:30.971Z,10.98
2023-04-04T19:07:05.663Z,11.01
2023-04-04T19:09:34.702Z,10.68
2023-04-04T19:12:03.699Z,10.63
2023-04-04T19:14:32.386Z,10.54
2023-04-04T19:17:00.823Z,10.12
2023-04-04T19:19:29.169Z,10.73
2023-04-04T19:21:57.597Z,11.00
2023-04-04T19:24:27.364Z,10.79
2023-04-04T19:26:55.785Z,10.45
2023-04-04T19:29:24.253Z,10.49
2023-04-04T19:31:55.322Z,10.39
2023-04-04T19:34:23.571Z,10.59
2023-04-04T19:36:51.970Z,10.47
2023-04-04T19:39:21.009Z,10.53
2023-04-04T19:41:50.732Z,10.58
2023-04-04T19:44:21.487Z,10.44
2023-04-04T19:46:50.308Z,10.64
2023-04-04T19:49:19.431Z,10.52
2023-04-04T19:51:52.552Z,9.88
2023-04-04T19:54:25.797Z,10.10
2023-04-04T19:56:59.869Z,10.02
2023-04-04T19:59:57.797Z,10.02
2023-04-04T20:02:51.902Z,10.01
2023-04-04T20:05:59.065Z,9.83
2023-04-04T20:08:37.435Z,9.93
2023-04-04T20:11:06.863Z,9.32
2023-04-04T20:13:37.822Z,9.79
2023-04-04T20:16:11.267Z,9.49
2023-04-04T20:18:41.157Z,9.02
2023-04-04T20:21:11.441Z,9.13
2023-04-04T20:23:43.457Z,9.56
2023-04-04T20:26:14.557Z,9.35
2023-04-04T20:28:46.707Z,9.17
2023-04-04T20:31:18.173Z,9.38
2023-04-04T20:33:46.526Z,9.08
2023-04-04T20:36:32.943Z,8.99
2023-04-04T20:39:01.715Z,9.19
2023-04-04T20:41:30.063Z,9.34
2023-04-04T20:44:01.193Z,8.60
2023-04-04T20:46:36.546Z,8.50
2023-04-04T20:49:06.307Z,8.67
2023-04-04T20:51:35.201Z,8.55
2023-04-04T20:54:04.412Z,8.81
2023-04-04T20:56:55.419Z,8.79
2023-04-04T20:59:36.544Z,8.76
2023-04-04T21:02:13.793Z,8.79
2023-04-04T21:04:45.068Z,8.88
2023-04-04T21:07:41.702Z,9.16
2023-04-04T21:10:24.793Z,9.00
2023-04-04T21:12:53.509Z,8.94
2023-04-04T21:15:25.757Z,8.32
2023-04-04T21:17:54.127Z,8.46
2023-04-04T21:21:05.715Z,8.52
2023-04-04T21:23:34.776Z,8.41
2023-04-04T21:26:05.258Z,7.39
2023-04-04T21:28:35.423Z,9.06
2023-04-04T21:31:13.661Z,8.88
2023-04-04T21:33:44.130Z,8.87
2023-04-04T21:36:28.386Z,8.62
2023-04-04T21:38:57.877Z,8.56
2023-04-04T21:41:27.985Z,8.87
2023-04-04T21:43:57.644Z,8.77
2023-04-04T21:46:29.901Z,8.98
2023-04-04T21:48:58.198Z,9.09
2023-04-04T21:51:26.516Z,8.76
2023-04-04T21:53:55.512Z,9.01
2023-04-04T21:56:27.577Z,9.27
2023-04-04T21:58:56.372Z,9.30
2023-04-04T22:01:25.294Z,9.25
2023-04-04T22:03:55.103Z,9.48
2023-04-04T22:06:25.485Z,9.24
2023-04-04T22:08:54.040Z,9.49
2023-04-04T22:11:23.250Z,9.07
2023-04-04T22:13:52.096Z,9.08
2023-04-04T22:16:21.518Z,9.13
2023-04-04T22:18:52.153Z,9.18
2023-04-04T22:21:26.186Z,8.84
2023-04-04T22:23:55.035Z,8.82
2023-04-04T22:26:32.633Z,9.00
2023-04-04T22:29:03.088Z,8.70
2023-04-04T22:31:34.520Z,8.79
2023-04-04T22:34:04.128Z,8.33
2023-04-04T22:36:34.596Z,8.46
2023-04-04T22:39:03.306Z,8.76
2023-04-04T22:41:31.568Z,8.71
2023-04-04T22:43:59.838Z,8.78
2023-04-04T22:46:29.690Z,8.75
2023-04-04T22:49:05.805Z,8.35
2023-04-04T22:51:43.507Z,8.10
2023-04-04T22:54:14.540Z,7.90
2023-04-04T22:56:43.209Z,8.04
2023-04-04T22:59:11.829Z,7.85
2023-04-04T23:01:40.534Z,8.06
2023-04-04T23:04:09.032Z,8.09
2023-04-04T23:06:38.827Z,8.10
2023-04-04T23:09:08.991Z,8.26
2023-04-04T23:11:37.979Z,8.20
2023-04-04T23:14:09.831Z,8.10
2023-04-04T23:16:38.504Z,8.25
2023-04-04T23:19:06.843Z,8.17
2023-04-04T23:21:35.277Z,7.97
2023-04-04T23:24:05.945Z,8.08
2023-04-04T23:26:34.566Z,7.95
2023-04-04T23:29:03.186Z,8.11
2023-04-04T23:31:31.588Z,8.32
2023-04-04T23:34:00.107Z,8.35
2023-04-04T23:36:28.502Z,8.49
2023-04-04T23:38:56.807Z,8.26
2023-04-04T23:41:26.824Z,8.51
2023-04-04T23:43:55.082Z,8.68
2023-04-04T23:46:24.104Z,8.60
2023-04-04T23:48:52.410Z,8.67
2023-04-04T23:51:21.598Z,8.42
2023-04-04T23:53:49.966Z,8.37
2023-04-04T23:56:18.138Z,7.91
2023-04-04T23:58:47.843Z,8.05
